createdAt,value
2023-05-02T00:00:57.503Z,10.90
2023-05-02T00:01:57.534Z,10.60
2023-05-02T00:02:57.708Z,10.80
2023-05-02T00:03:57.553Z,10.80
2023-05-02T00:04:57.462Z,10.60
2023-05-02T00:05:57.458Z,10.50
2023-05-02T00:06:57.549Z,10.50
2023-05-02T00:07:57.428Z,10.70
2023-05-02T00:08:57.435Z,10.90
2023-05-02T00:09:57.528Z,11.00
2023-05-02T00:10:57.398Z,10.90
2023-05-02T00:11:57.402Z,10.70
2023-05-02T00:12:57.376Z,10.70
2023-05-02T00:13:57.366Z,10.30
2023-05-02T00:14:57.355Z,10.40
2023-05-02T00:15:57.341Z,10.40
2023-05-02T00:16:57.438Z,10.40
2023-05-02T00:17:57.378Z,10.50
2023-05-02T00:18:57.332Z,10.70
2023-05-02T00:19:57.571Z,10.60
2023-05-02T00:20:57.281Z,10.70
2023-05-02T00:21:57.319Z,10.50
2023-05-02T00:22:57.362Z,10.40
2023-05-02T00:23:57.253Z,10.20
2023-05-02T00:24:57.242Z,10.20
2023-05-02T00:25:57.258Z,10.30
2023-05-02T00:26:57.242Z,10.20
2023-05-02T00:27:57.211Z,10.60
2023-05-02T00:28:57.198Z,10.60
2023-05-02T00:29:57.341Z,10.70
2023-05-02T00:30:57.181Z,10.90
2023-05-02T00:31:57.187Z,10.40
2023-05-02T00:32:57.186Z,10.40
2023-05-02T00:33:57.146Z,10.30
2023-05-02T00:34:57.147Z,10.30
2023-05-02T00:35:57.124Z,10.40
2023-05-02T00:36:57.121Z,10.40
2023-05-02T00:37:57.098Z,10.50
2023-05-02T00:38:57.092Z,10.70
2023-05-02T00:39:57.254Z,10.60
2023-05-02T00:40:57.157Z,10.70
2023-05-02T00:41:57.068Z,10.60
2023-05-02T00:42:57.038Z,10.40
2023-05-02T00:43:57.052Z,10.60
2023-05-02T00:44:57.039Z,10.40
2023-05-02T00:45:57.106Z,10.50
2023-05-02T00:46:57.272Z,10.30
2023-05-02T00:47:57.028Z,10.60
2023-05-02T00:48:56.984Z,10.70
2023-05-02T00:49:57.049Z,10.50
2023-05-02T00:50:57.086Z,10.80
2023-05-02T00:51:56.958Z,10.50
2023-05-02T00:52:56.969Z,10.60
2023-05-02T00:53:56.934Z,10.40
2023-05-02T00:54:56.912Z,10.30
2023-05-02T00:55:56.902Z,10.10
2023-05-02T00:56:56.886Z,10.30
2023-05-02T00:57:56.923Z,10.40
2023-05-02T00:58:56.874Z,10.50
2023-05-02T00:59:56.954Z,10.50
2023-05-02T01:00:56.848Z,10.60
2023-05-02T01:01:56.898Z,10.50
2023-05-02T01:02:56.881Z,10.50
2023-05-02T01:03:56.927Z,10.50
2023-05-02T01:04:56.809Z,10.40
2023-05-02T01:05:56.789Z,10.30
2023-05-02T01:06:56.804Z,10.00
2023-05-02T01:07:56.766Z,10.60
2023-05-02T01:08:56.752Z,10.30
2023-05-02T01:09:56.827Z,10.40
2023-05-02T01:10:56.729Z,10.30
2023-05-02T01:11:56.731Z,10.50
2023-05-02T01:12:56.708Z,10.50
2023-05-02T01:13:56.703Z,10.40
2023-05-02T01:14:56.695Z,10.20
2023-05-02T01:15:56.708Z,10.30
2023-05-02T01:16:56.684Z,10.50
2023-05-02T01:17:56.785Z,10.30
2023-05-02T01:18:56.641Z,10.60
2023-05-02T01:19:56.653Z,10.70
2023-05-02T01:20:56.618Z,10.50
2023-05-02T01:21:56.623Z,10.70
2023-05-02T01:22:56.619Z,10.40
2023-05-02T01:23:56.587Z,10.50
2023-05-02T01:24:56.575Z,10.40
2023-05-02T01:25:56.576Z,10.50
2023-05-02T01:26:56.563Z,10.30
2023-05-02T01:27:56.546Z,10.60
2023-05-02T01:28:56.530Z,10.20
2023-05-02T01:29:56.584Z,10.60
2023-05-02T01:30:56.531Z,10.50
2023-05-02T01:31:56.616Z,10.90
2023-05-02T01:32:56.531Z,10.70
2023-05-02T01:33:56.480Z,10.60
2023-05-02T01:34:56.462Z,10.50
2023-05-02T01:35:56.462Z,10.50
2023-05-02T01:36:56.482Z,10.50
2023-05-02T01:37:56.433Z,10.50
2023-05-02T01:38:56.439Z,10.60
2023-05-02T01:39:56.459Z,10.80
2023-05-02T01:40:56.411Z,10.60
2023-05-02T01:41:56.414Z,10.70
2023-05-02T01:42:56.378Z,10.90
2023-05-02T01:43:56.371Z,10.30
2023-05-02T01:44:56.360Z,10.10
2023-05-02T01:45:56.378Z,10.30
2023-05-02T01:46:56.368Z,10.10
2023-05-02T01:47:56.373Z,10.20
2023-05-02T01:48:56.318Z,10.70
2023-05-02T01:49:56.362Z,10.40
2023-05-02T01:50:56.304Z,10.70
2023-05-02T01:51:56.312Z,10.50
2023-05-02T01:52:56.276Z,10.60
2023-05-02T01:53:56.262Z,10.60
2023-05-02T01:54:56.267Z,10.30
2023-05-02T01:55:56.240Z,10.40
2023-05-02T01:56:56.255Z,10.40
2023-05-02T01:57:56.227Z,10.70
2023-05-02T01:58:56.206Z,11.00
2023-05-02T01:59:56.195Z,11.00
2023-05-02T02:00:56.264Z,10.70
2023-05-02T02:01:56.205Z,10.90
2023-05-02T02:02:56.260Z,10.80
2023-05-02T02:03:56.205Z,10.70
2023-05-02T02:04:56.151Z,10.50
2023-05-02T02:05:56.149Z,10.60
2023-05-02T02:06:56.132Z,10.40
2023-05-02T02:07:56.161Z,10.30
2023-05-02T02:08:56.101Z,10.40
2023-05-02T02:09:56.093Z,11.00
2023-05-02T02:10:56.091Z,10.60
2023-05-02T02:11:56.082Z,10.80
2023-05-02T02:12:56.071Z,10.80
2023-05-02T02:13:56.046Z,10.40
2023-05-02T02:14:56.030Z,10.80
2023-05-02T02:15:56.040Z,10.60
2023-05-02T02:16:56.109Z,10.60
2023-05-02T02:17:56.009Z,11.40
2023-05-02T02:18:55.986Z,10.70
2023-05-02T02:19:55.976Z,10.80
2023-05-02T02:20:55.985Z,11.00
2023-05-02T02:21:55.988Z,10.90
2023-05-02T02:22:55.942Z,11.10
2023-05-02T02:23:55.929Z,11.40
2023-05-02T02:24:55.919Z,10.40
2023-05-02T02:25:55.920Z,10.80
2023-05-02T02:26:55.940Z,11.80
2023-05-02T02:27:55.891Z,12.10
2023-05-02T02:28:55.876Z,10.60
2023-05-02T02:29:55.874Z,11.00
2023-05-02T02:30:55.880Z,10.80
2023-05-02T02:31:55.865Z,11.60
2023-05-02T02:32:55.881Z,10.70
2023-05-02T02:33:55.826Z,11.40
2023-05-02T02:34:55.815Z,11.00
2023-05-02T02:35:55.798Z,10.90
2023-05-02T02:36:55.800Z,12.40
2023-05-02T02:37:55.779Z,11.30
2023-05-02T02:38:55.764Z,11.10
2023-05-02T02:39:55.753Z,11.10
2023-05-02T02:40:55.752Z,11.20
2023-05-02T02:41:55.733Z,11.80
2023-05-02T02:42:55.748Z,12.40
2023-05-02T02:43:55.713Z,11.40
2023-05-02T02:44:55.699Z,11.00
2023-05-02T02:45:55.743Z,10.50
2023-05-02T02:46:55.674Z,10.90
2023-05-02T02:47:55.711Z,11.90
2023-05-02T02:48:55.656Z,10.30
2023-05-02T02:49:55.651Z,10.50
2023-05-02T02:50:55.650Z,10.40
2023-05-02T02:51:55.637Z,11.30
2023-05-02T02:52:55.606Z,11.20
2023-05-02T02:53:55.602Z,10.60
2023-05-02T02:54:55.602Z,11.80
2023-05-02T02:55:55.603Z,11.10
2023-05-02T02:56:55.562Z,10.80
2023-05-02T02:57:55.563Z,11.20
2023-05-02T02:58:55.575Z,10.70
2023-05-02T02:59:55.535Z,10.50
2023-05-02T03:00:55.530Z,11.00
2023-05-02T03:01:55.585Z,11.20
2023-05-02T03:02:55.528Z,11.10
2023-05-02T03:03:55.528Z,11.10
2023-05-02T03:04:55.474Z,12.10
2023-05-02T03:05:55.473Z,10.40
2023-05-02T03:06:55.533Z,10.90
2023-05-02T03:07:55.445Z,11.30
2023-05-02T03:08:55.429Z,11.00
2023-05-02T03:09:55.427Z,11.00
2023-05-02T03:10:55.429Z,11.30
2023-05-02T03:11:55.409Z,10.60
2023-05-02T03:12:55.387Z,10.50
2023-05-02T03:13:55.377Z,10.70
2023-05-02T03:14:55.383Z,11.10
2023-05-02T03:15:55.470Z,10.50
2023-05-02T03:16:55.351Z,12.50
2023-05-02T03:17:55.401Z,10.90
2023-05-02T03:18:55.314Z,11.10
2023-05-02T03:19:55.337Z,11.40
2023-05-02T03:20:55.308Z,11.30
2023-05-02T03:21:55.288Z,11.00
2023-05-02T03:22:55.288Z,11.40
2023-05-02T03:23:55.263Z,11.30
2023-05-02T03:24:55.271Z,11.20
2023-05-02T03:25:55.255Z,11.30
2023-05-02T03:26:55.247Z,10.70
2023-05-02T03:27:55.231Z,10.80
2023-05-02T03:28:55.212Z,12.90
2023-05-02T03:29:55.198Z,11.20
2023-05-02T03:30:55.244Z,11.00
2023-05-02T03:31:55.243Z,11.70
2023-05-02T03:32:55.213Z,13.00
2023-05-02T03:33:55.162Z,10.80
2023-05-02T03:34:55.146Z,11.90
2023-05-02T03:35:55.146Z,12.50
2023-05-02T03:36:55.129Z,10.90
2023-05-02T03:37:55.115Z,11.50
2023-05-02T03:38:55.119Z,10.80
2023-05-02T03:39:55.129Z,11.10
2023-05-02T03:40:55.084Z,12.20
2023-05-02T03:41:55.086Z,12.30
2023-05-02T03:42:55.088Z,11.00
2023-05-02T03:43:55.076Z,11.80
2023-05-02T03:44:55.039Z,12.30
2023-05-02T03:45:55.210Z,11.10
2023-05-02T03:46:55.073Z,11.50
2023-05-02T03:47:55.119Z,11.50
2023-05-02T03:48:54.990Z,13.00
2023-05-02T03:49:54.979Z,12.10
2023-05-02T03:50:55.004Z,11.20
2023-05-02T03:51:54.969Z,11.40
2023-05-02T03:52:54.949Z,11.40
2023-05-02T03:53:54.943Z,11.10
2023-05-02T03:54:54.927Z,11.10
2023-05-02T03:55:54.911Z,12.10
2023-05-02T03:56:54.915Z,11.20
2023-05-02T03:57:54.891Z,11.90
2023-05-02T03:58:54.891Z,12.80
2023-05-02T03:59:54.868Z,11.80
2023-05-02T04:00:54.866Z,13.00
2023-05-02T04:01:54.940Z,13.30
2023-05-02T04:02:54.883Z,11.00
2023-05-02T04:03:54.862Z,10.90
2023-05-02T04:04:54.824Z,12.20
2023-05-02T04:05:54.804Z,10.80
2023-05-02T04:06:54.932Z,10.60
2023-05-02T04:07:54.782Z,12.10
2023-05-02T04:08:54.776Z,11.80
2023-05-02T04:09:54.787Z,11.30
2023-05-02T04:10:54.751Z,12.40
2023-05-02T04:11:54.780Z,11.10
2023-05-02T04:12:54.727Z,11.30
2023-05-02T04:13:54.793Z,11.10
2023-05-02T04:14:54.705Z,11.20
2023-05-02T04:15:54.692Z,11.30
2023-05-02T04:16:54.728Z,11.40
2023-05-02T04:17:54.689Z,12.30
2023-05-02T04:18:54.701Z,11.40
2023-05-02T04:19:54.651Z,12.20
2023-05-02T04:20:54.640Z,10.50
2023-05-02T04:21:54.652Z,12.20
2023-05-02T04:22:54.620Z,13.30
2023-05-02T04:23:54.606Z,12.10
2023-05-02T04:24:54.601Z,11.20
2023-05-02T04:25:54.585Z,11.20
2023-05-02T04:26:54.589Z,12.10
2023-05-02T04:27:54.576Z,11.90
2023-05-02T04:28:54.552Z,10.80
2023-05-02T04:29:54.538Z,12.10
2023-05-02T04:30:54.586Z,11.60
2023-05-02T04:31:54.515Z,11.90
2023-05-02T04:32:54.533Z,12.50
2023-05-02T04:33:54.495Z,11.60
2023-05-02T04:34:54.506Z,12.00
2023-05-02T04:35:54.491Z,11.10
2023-05-02T04:36:54.460Z,12.10
2023-05-02T04:37:54.464Z,12.30
2023-05-02T04:38:54.435Z,10.80
2023-05-02T04:39:54.434Z,13.10
2023-05-02T04:40:54.451Z,11.20
2023-05-02T04:41:54.430Z,10.60
2023-05-02T04:42:54.398Z,10.80
2023-05-02T04:43:54.390Z,10.60
2023-05-02T04:44:54.390Z,11.70
2023-05-02T04:45:54.408Z,12.60
2023-05-02T04:46:54.394Z,11.80
2023-05-02T04:47:54.385Z,11.30
2023-05-02T04:48:54.328Z,12.20
2023-05-02T04:49:54.349Z,11.30
2023-05-02T04:50:54.365Z,11.30
2023-05-02T04:51:54.293Z,12.30
2023-05-02T04:52:54.287Z,12.80
2023-05-02T04:53:54.280Z,11.90
2023-05-02T04:54:54.259Z,10.70
2023-05-02T04:55:54.268Z,11.30
2023-05-02T04:56:54.276Z,11.20
2023-05-02T04:57:54.231Z,11.50
2023-05-02T04:58:54.219Z,12.00
2023-05-02T04:59:54.206Z,11.40
2023-05-02T05:00:54.213Z,12.30
2023-05-02T05:01:54.261Z,11.60
2023-05-02T05:02:54.218Z,12.10
2023-05-02T05:03:54.202Z,13.00
2023-05-02T05:04:54.211Z,10.60
2023-05-02T05:05:54.139Z,11.60
2023-05-02T05:06:54.243Z,11.30
2023-05-02T05:07:54.123Z,11.20
2023-05-02T05:08:54.126Z,10.90
2023-05-02T05:09:54.107Z,11.50
2023-05-02T05:10:54.098Z,11.10
2023-05-02T05:11:54.075Z,11.50
2023-05-02T05:12:54.065Z,11.10
2023-05-02T05:13:54.050Z,12.00
2023-05-02T05:14:54.061Z,11.00
2023-05-02T05:15:54.057Z,10.60
2023-05-02T05:16:54.034Z,11.70
2023-05-02T05:17:54.036Z,10.90
2023-05-02T05:18:54.010Z,10.80
2023-05-02T05:19:54.008Z,11.60
2023-05-02T05:20:53.975Z,11.50
2023-05-02T05:21:53.969Z,11.40
2023-05-02T05:22:53.980Z,10.90
2023-05-02T05:23:53.943Z,11.70
2023-05-02T05:24:53.950Z,12.00
2023-05-02T05:25:53.928Z,11.70
2023-05-02T05:26:53.913Z,11.10
2023-05-02T05:27:53.901Z,11.50
2023-05-02T05:28:53.888Z,12.20
2023-05-02T05:29:53.911Z,10.80
2023-05-02T05:30:53.880Z,11.00
2023-05-02T05:31:53.920Z,12.50
2023-05-02T05:32:53.892Z,11.20
2023-05-02T05:33:53.898Z,11.50
2023-05-02T05:34:53.870Z,12.70
2023-05-02T05:35:53.813Z,12.00
2023-05-02T05:36:53.805Z,11.40
2023-05-02T05:37:53.807Z,11.90
2023-05-02T05:38:53.796Z,12.30
2023-05-02T05:39:53.797Z,12.00
2023-05-02T05:40:53.759Z,11.10
2023-05-02T05:41:53.746Z,11.40
2023-05-02T05:42:53.750Z,11.50
2023-05-02T05:43:53.720Z,12.10
2023-05-02T05:44:53.744Z,12.10
2023-05-02T05:45:53.700Z,11.20
2023-05-02T05:46:53.701Z,11.50
2023-05-02T05:47:53.704Z,11.00
2023-05-02T05:48:53.667Z,11.30
2023-05-02T05:49:53.677Z,11.10
2023-05-02T05:50:53.648Z,10.70
2023-05-02T05:51:53.637Z,12.40
2023-05-02T05:52:53.625Z,12.20
2023-05-02T05:53:53.611Z,11.00
2023-05-02T05:54:53.676Z,11.10
2023-05-02T05:55:53.600Z,12.60
2023-05-02T05:56:53.582Z,11.40
2023-05-02T05:57:53.570Z,10.80
2023-05-02T05:58:53.559Z,11.00
2023-05-02T05:59:53.580Z,11.30
2023-05-02T06:00:53.567Z,12.00
2023-05-02T06:01:53.525Z,11.20
2023-05-02T06:02:53.597Z,11.50
2023-05-02T06:03:53.586Z,11.70
2023-05-02T06:04:53.554Z,11.00
2023-05-02T06:05:53.481Z,11.40
2023-05-02T06:06:53.671Z,12.70
2023-05-02T06:07:53.457Z,12.10
2023-05-02T06:08:53.466Z,11.70
2023-05-02T06:09:53.452Z,11.30
2023-05-02T06:10:53.459Z,11.20
2023-05-02T06:11:53.418Z,12.60
2023-05-02T06:12:53.407Z,13.00
2023-05-02T06:13:53.398Z,11.50
2023-05-02T06:14:53.404Z,11.60
2023-05-02T06:15:53.425Z,11.40
2023-05-02T06:16:53.379Z,12.10
2023-05-02T06:17:53.430Z,11.70
2023-05-02T06:18:53.343Z,11.20
2023-05-02T06:19:53.334Z,11.10
2023-05-02T06:20:53.355Z,11.40
2023-05-02T06:21:53.310Z,11.40
2023-05-02T06:22:53.307Z,12.20
2023-05-02T06:23:53.289Z,11.40
2023-05-02T06:24:53.295Z,12.30
2023-05-02T06:25:53.282Z,11.50
2023-05-02T06:26:53.274Z,11.40
2023-05-02T06:27:53.247Z,12.50
2023-05-02T06:28:53.239Z,11.40
2023-05-02T06:29:53.254Z,12.40
2023-05-02T06:30:53.224Z,12.30
2023-05-02T06:31:53.216Z,11.30
2023-05-02T06:32:53.216Z,11.60
2023-05-02T06:33:53.173Z,12.20
2023-05-02T06:34:53.184Z,11.10
2023-05-02T06:35:53.158Z,12.10
2023-05-02T06:36:53.145Z,12.50
2023-05-02T06:37:53.138Z,12.70
2023-05-02T06:38:53.136Z,12.70
2023-05-02T06:39:53.109Z,12.10
2023-05-02T06:40:53.099Z,11.60
2023-05-02T06:41:53.086Z,13.70
2023-05-02T06:42:53.096Z,11.70
2023-05-02T06:43:53.114Z,11.90
2023-05-02T06:44:53.070Z,13.00
2023-05-02T06:45:53.044Z,11.60
2023-05-02T06:46:53.071Z,10.90
2023-05-02T06:47:53.111Z,11.50
2023-05-02T06:48:53.011Z,11.40
2023-05-02T06:49:53.019Z,11.20
2023-05-02T06:50:53.008Z,11.30
2023-05-02T06:51:52.981Z,11.90
2023-05-02T06:52:52.972Z,11.10
2023-05-02T06:53:52.956Z,11.00
2023-05-02T06:54:52.962Z,12.20
2023-05-02T06:55:52.964Z,11.10
2023-05-02T06:56:52.957Z,11.50
2023-05-02T06:57:52.914Z,11.10
2023-05-02T06:58:52.932Z,12.10
2023-05-02T06:59:52.886Z,13.20
2023-05-02T07:00:52.924Z,10.70
2023-05-02T07:01:52.877Z,12.20
2023-05-02T07:02:52.910Z,11.20
2023-05-02T07:03:52.918Z,12.00
2023-05-02T07:04:52.847Z,12.40
2023-05-02T07:05:52.837Z,12.30
2023-05-02T07:06:52.987Z,12.00
2023-05-02T07:07:52.804Z,12.40
2023-05-02T07:08:52.812Z,11.90
2023-05-02T07:09:52.799Z,11.20
2023-05-02T07:10:52.771Z,11.20
2023-05-02T07:11:52.758Z,11.90
2023-05-02T07:12:52.749Z,11.10
2023-05-02T07:13:52.737Z,11.20
2023-05-02T07:14:52.776Z,10.90
2023-05-02T07:15:52.726Z,11.10
2023-05-02T07:16:52.789Z,11.10
2023-05-02T07:17:52.824Z,10.60
2023-05-02T07:18:52.686Z,10.80
2023-05-02T07:19:52.695Z,11.60
2023-05-02T07:20:52.674Z,11.20
2023-05-02T07:21:52.650Z,10.70
2023-05-02T07:22:52.662Z,12.00
2023-05-02T07:23:52.625Z,12.80
2023-05-02T07:24:52.632Z,11.00
2023-05-02T07:25:52.611Z,11.40
2023-05-02T07:26:52.605Z,11.60
2023-05-02T07:27:52.590Z,11.60
2023-05-02T07:28:52.581Z,11.00
2023-05-02T07:29:52.586Z,11.30
2023-05-02T07:30:52.597Z,12.20
2023-05-02T07:31:52.577Z,12.70
2023-05-02T07:32:52.600Z,12.80
2023-05-02T07:33:52.517Z,11.40
2023-05-02T07:34:52.519Z,11.40
2023-05-02T07:35:52.503Z,11.30
2023-05-02T07:36:52.486Z,11.60
2023-05-02T07:37:52.477Z,11.70
2023-05-02T07:38:52.467Z,11.90
2023-05-02T07:39:52.494Z,12.00
2023-05-02T07:40:52.448Z,11.50
2023-05-02T07:41:52.443Z,11.80
2023-05-02T07:42:52.436Z,11.70
2023-05-02T07:43:52.450Z,11.40
2023-05-02T07:44:52.426Z,11.20
2023-05-02T07:45:52.423Z,13.10
2023-05-02T07:46:52.401Z,13.60
2023-05-02T07:48:00.251Z,11.50
2023-05-02T07:48:52.403Z,11.90
2023-05-02T07:49:52.360Z,11.90
2023-05-02T07:50:52.341Z,11.60
2023-05-02T07:51:52.337Z,12.20
2023-05-02T07:52:52.324Z,13.30
2023-05-02T07:53:52.315Z,12.40
2023-05-02T07:54:52.324Z,12.80
2023-05-02T07:55:52.287Z,11.70
2023-05-02T07:56:52.277Z,13.20
2023-05-02T07:57:52.260Z,12.90
2023-05-02T07:58:52.263Z,11.90
2023-05-02T07:59:52.240Z,12.80
2023-05-02T08:00:52.226Z,13.00
2023-05-02T08:01:52.231Z,11.90
2023-05-02T08:02:52.349Z,11.80
2023-05-02T08:03:52.697Z,12.50
2023-05-02T08:04:52.209Z,12.00
2023-05-02T08:05:52.176Z,12.00
2023-05-02T08:06:52.280Z,11.80
2023-05-02T08:07:52.164Z,12.50
2023-05-02T08:08:52.181Z,12.00
2023-05-02T08:09:52.129Z,12.30
2023-05-02T08:10:52.117Z,12.20
2023-05-02T08:11:52.107Z,12.40
2023-05-02T08:12:52.106Z,12.40
2023-05-02T08:13:52.112Z,12.10
2023-05-02T08:14:52.071Z,11.60
2023-05-02T08:15:52.084Z,11.90
2023-05-02T08:16:52.173Z,12.40
2023-05-02T08:17:52.077Z,13.10
2023-05-02T08:18:52.061Z,12.20
2023-05-02T08:19:52.036Z,11.80
2023-05-02T08:20:52.010Z,13.30
2023-05-02T08:21:52.000Z,12.10
2023-05-02T08:23:00.185Z,11.70
2023-05-02T08:23:51.999Z,12.90
2023-05-02T08:24:51.961Z,11.80
2023-05-02T08:25:51.961Z,11.80
2023-05-02T08:26:51.943Z,13.60
2023-05-02T08:27:51.978Z,12.40
2023-05-02T08:28:51.946Z,12.30
2023-05-02T08:29:51.920Z,12.00
2023-05-02T08:30:51.897Z,13.10
2023-05-02T08:31:51.919Z,13.80
2023-05-02T08:32:51.903Z,14.20
2023-05-02T08:33:51.887Z,12.10
2023-05-02T08:34:51.920Z,13.10
2023-05-02T08:35:51.847Z,13.00
2023-05-02T08:36:51.835Z,11.70
2023-05-02T08:37:51.823Z,12.10
2023-05-02T08:38:51.856Z,12.20
2023-05-02T08:39:51.802Z,11.60
2023-05-02T08:40:51.802Z,12.90
2023-05-02T08:41:51.793Z,12.00
2023-05-02T08:42:51.773Z,12.90
2023-05-02T08:43:51.779Z,12.30
2023-05-02T08:44:51.790Z,13.20
2023-05-02T08:45:51.741Z,12.10
2023-05-02T08:46:51.761Z,12.00
2023-05-02T08:47:51.736Z,12.60
2023-05-02T08:48:51.701Z,13.10
2023-05-02T08:49:51.693Z,11.60
2023-05-02T08:50:51.739Z,11.90
2023-05-02T08:51:51.678Z,12.20
2023-05-02T08:52:51.677Z,12.10
2023-05-02T08:53:51.650Z,12.30
2023-05-02T08:54:51.632Z,11.80
2023-05-02T08:55:51.622Z,11.90
2023-05-02T08:56:51.612Z,12.10
2023-05-02T08:57:58.732Z,12.10
2023-05-02T08:58:51.609Z,12.00
2023-05-02T08:59:51.585Z,11.90
2023-05-02T09:00:51.617Z,12.50
2023-05-02T09:01:51.559Z,11.70
2023-05-02T09:02:51.690Z,12.10
2023-05-02T09:03:51.561Z,11.30
2023-05-02T09:04:51.523Z,12.20
2023-05-02T09:05:51.512Z,11.40
2023-05-02T09:06:51.558Z,11.70
2023-05-02T09:07:51.659Z,13.50
2023-05-02T09:08:51.727Z,11.90
2023-05-02T09:09:51.472Z,11.30
2023-05-02T09:10:59.402Z,12.50
2023-05-02T09:11:51.446Z,11.70
2023-05-02T09:12:51.434Z,11.30
2023-05-02T09:13:51.521Z,11.70
2023-05-02T09:14:51.410Z,11.70
2023-05-02T09:15:51.406Z,12.00
2023-05-02T09:16:51.447Z,11.90
2023-05-02T09:17:51.403Z,12.20
2023-05-02T09:18:51.391Z,11.30
2023-05-02T09:19:51.359Z,11.50
2023-05-02T09:20:51.346Z,12.70
2023-05-02T09:21:51.347Z,12.70
2023-05-02T09:22:51.377Z,11.60
2023-05-02T09:23:51.331Z,11.60
2023-05-02T09:24:51.303Z,12.10
2023-05-02T09:25:51.293Z,12.10
2023-05-02T09:26:51.297Z,12.30
2023-05-02T09:27:51.273Z,11.50
2023-05-02T09:28:51.388Z,11.50
2023-05-02T09:29:51.248Z,12.40
2023-05-02T09:30:51.277Z,11.80
2023-05-02T09:31:56.039Z,11.70
2023-05-02T09:32:52.286Z,11.30
2023-05-02T09:33:51.235Z,11.30
2023-05-02T09:34:51.191Z,11.80
2023-05-02T09:35:51.190Z,11.70
2023-05-02T09:36:51.204Z,11.50
2023-05-02T09:37:51.174Z,11.70
2023-05-02T09:38:51.182Z,11.40
2023-05-02T09:39:51.138Z,12.10
2023-05-02T09:40:51.131Z,12.80
2023-05-02T09:41:51.125Z,11.70
2023-05-02T09:42:51.103Z,11.80
2023-05-02T09:43:51.109Z,11.70
2023-05-02T09:44:51.079Z,11.70
2023-05-02T09:45:51.158Z,11.70
2023-05-02T09:46:51.062Z,12.20
2023-05-02T09:47:51.077Z,11.80
2023-05-02T09:48:51.071Z,11.50
2023-05-02T09:49:51.037Z,11.90
2023-05-02T09:50:51.015Z,12.50
2023-05-02T09:51:51.016Z,11.70
2023-05-02T09:52:50.992Z,12.10
2023-05-02T09:53:51.002Z,11.40
2023-05-02T09:54:50.999Z,12.30
2023-05-02T09:55:50.962Z,12.60
2023-05-02T09:56:50.950Z,12.60
2023-05-02T09:57:50.937Z,11.90
2023-05-02T09:58:50.960Z,11.60
2023-05-02T09:59:50.916Z,12.00
2023-05-02T10:00:50.918Z,11.80
2023-05-02T10:01:50.928Z,12.10
2023-05-02T10:02:50.896Z,12.00
2023-05-02T10:03:50.900Z,11.50
2023-05-02T10:04:50.886Z,11.90
2023-05-02T10:05:50.854Z,12.00
2023-05-02T10:06:50.935Z,12.20
2023-05-02T10:07:50.832Z,12.00
2023-05-02T10:08:50.821Z,11.90
2023-05-02T10:09:50.841Z,12.90
2023-05-02T10:10:50.812Z,11.60
2023-05-02T10:11:50.806Z,11.50
2023-05-02T10:12:50.776Z,11.90
2023-05-02T10:13:50.767Z,11.70
2023-05-02T10:14:50.790Z,12.40
2023-05-02T10:15:50.783Z,11.30
2023-05-02T10:16:50.730Z,11.70
2023-05-02T10:17:50.894Z,13.00
2023-05-02T10:18:50.719Z,12.00
2023-05-02T10:19:50.704Z,11.80
2023-05-02T10:20:50.685Z,11.90
2023-05-02T10:21:50.676Z,11.70
2023-05-02T10:22:50.673Z,11.90
2023-05-02T10:23:50.652Z,13.00
2023-05-02T10:24:50.677Z,13.10
2023-05-02T10:25:50.634Z,11.70
2023-05-02T10:26:50.668Z,12.70
2023-05-02T10:27:50.613Z,13.20
2023-05-02T10:28:50.603Z,12.10
2023-05-02T10:29:50.610Z,12.90
2023-05-02T10:30:50.582Z,12.00
2023-05-02T10:31:50.599Z,12.20
2023-05-02T10:32:50.577Z,12.20
2023-05-02T10:33:50.549Z,11.70
2023-05-02T10:34:50.552Z,12.80
2023-05-02T10:35:50.523Z,12.80
2023-05-02T10:36:50.506Z,12.10
2023-05-02T10:37:50.523Z,12.50
2023-05-02T10:38:50.490Z,11.90
2023-05-02T10:39:50.477Z,12.70
2023-05-02T10:40:50.726Z,12.00
2023-05-02T10:41:50.459Z,12.50
2023-05-02T10:42:50.492Z,13.10
2023-05-02T10:43:50.432Z,13.10
2023-05-02T10:44:50.438Z,12.40
2023-05-02T10:45:50.428Z,11.90
2023-05-02T10:46:50.407Z,12.70
2023-05-02T10:47:50.421Z,13.70
2023-05-02T10:48:50.379Z,12.10
2023-05-02T10:49:50.364Z,12.70
2023-05-02T10:50:50.352Z,14.00
2023-05-02T10:51:50.347Z,13.00
2023-05-02T10:52:50.345Z,12.20
2023-05-02T10:53:50.321Z,13.10
2023-05-02T10:54:50.320Z,12.50
2023-05-02T10:55:50.295Z,12.70
2023-05-02T10:56:50.290Z,12.80
2023-05-02T10:57:50.284Z,14.20
2023-05-02T10:58:50.279Z,12.60
2023-05-02T10:59:50.267Z,12.30
2023-05-02T11:00:50.253Z,12.40
2023-05-02T11:01:50.254Z,13.20
2023-05-02T11:02:50.358Z,13.20
2023-05-02T11:03:50.218Z,12.30
2023-05-02T11:04:50.205Z,12.90
2023-05-02T11:05:50.185Z,13.50
2023-05-02T11:06:50.201Z,12.90
2023-05-02T11:07:50.166Z,12.60
2023-05-02T11:08:50.160Z,12.90
2023-05-02T11:09:50.159Z,12.40
2023-05-02T11:10:50.136Z,12.60
2023-05-02T11:11:50.121Z,13.20
2023-05-02T11:12:50.114Z,12.80
2023-05-02T11:13:50.113Z,12.20
2023-05-02T11:14:50.109Z,12.70
2023-05-02T11:15:50.084Z,12.20
2023-05-02T11:16:50.118Z,12.90
2023-05-02T11:17:50.085Z,14.20
2023-05-02T11:18:50.044Z,12.80
2023-05-02T11:19:50.050Z,12.10
2023-05-02T11:20:50.025Z,12.60
2023-05-02T11:21:50.012Z,13.30
2023-05-02T11:22:50.051Z,12.60
2023-05-02T11:23:49.998Z,12.40
2023-05-02T11:24:50.004Z,12.60
2023-05-02T11:25:49.970Z,13.30
2023-05-02T11:26:49.960Z,12.30
2023-05-02T11:27:49.947Z,12.00
2023-05-02T11:28:49.938Z,12.90
2023-05-02T11:29:49.933Z,13.10
2023-05-02T11:30:49.940Z,13.40
2023-05-02T11:31:50.052Z,12.40
2023-05-02T11:32:50.059Z,12.20
2023-05-02T11:33:49.880Z,12.50
2023-05-02T11:34:49.995Z,12.20
2023-05-02T11:35:49.864Z,11.80
2023-05-02T11:36:49.852Z,12.70
2023-05-02T11:37:49.850Z,13.40
2023-05-02T11:38:49.824Z,12.50
2023-05-02T11:39:49.830Z,12.60
2023-05-02T11:40:49.807Z,11.80
2023-05-02T11:41:49.807Z,12.00
2023-05-02T11:42:49.781Z,12.20
2023-05-02T11:43:49.772Z,11.70
2023-05-02T11:44:49.810Z,12.20
2023-05-02T11:45:49.768Z,11.40
2023-05-02T11:46:49.815Z,12.00
2023-05-02T11:47:49.773Z,12.20
2023-05-02T11:48:49.713Z,13.30
2023-05-02T11:49:49.708Z,12.20
2023-05-02T11:50:50.813Z,12.10
2023-05-02T11:51:49.684Z,12.20
2023-05-02T11:52:49.686Z,13.10
2023-05-02T11:53:49.680Z,12.70
2023-05-02T11:54:49.660Z,11.70
2023-05-02T11:55:49.648Z,13.50
2023-05-02T11:56:49.634Z,12.90
2023-05-02T11:57:49.621Z,11.90
2023-05-02T11:58:49.656Z,11.90
2023-05-02T11:59:49.598Z,12.40
2023-05-02T12:00:49.607Z,11.90
2023-05-02T12:01:49.576Z,12.30
2023-05-02T12:02:49.651Z,12.00
2023-05-02T12:03:49.856Z,11.60
2023-05-02T12:04:49.551Z,12.40
2023-05-02T12:05:49.571Z,11.10
2023-05-02T12:06:49.547Z,11.60
2023-05-02T12:07:49.541Z,12.50
2023-05-02T12:08:49.627Z,11.60
2023-05-02T12:09:49.488Z,11.60
2023-05-02T12:10:49.480Z,13.20
2023-05-02T12:11:49.469Z,11.50
2023-05-02T12:12:49.460Z,12.20
2023-05-02T12:13:49.450Z,13.20
2023-05-02T12:14:49.428Z,12.60
2023-05-02T12:15:49.448Z,11.80
2023-05-02T12:16:49.439Z,11.80
2023-05-02T12:17:49.484Z,12.10
2023-05-02T12:18:49.467Z,11.60
2023-05-02T12:19:49.382Z,12.40
2023-05-02T12:20:49.366Z,11.50
2023-05-02T12:21:49.350Z,10.90
2023-05-02T12:22:49.350Z,11.90
2023-05-02T12:23:49.395Z,12.90
2023-05-02T12:24:49.328Z,11.80
2023-05-02T12:25:49.307Z,11.60
2023-05-02T12:26:51.079Z,11.20
2023-05-02T12:27:49.292Z,12.10
2023-05-02T12:28:49.312Z,12.30
2023-05-02T12:29:49.278Z,12.70
2023-05-02T12:30:49.280Z,11.60
2023-05-02T12:31:49.337Z,11.50
2023-05-02T12:32:49.277Z,11.90
2023-05-02T12:33:49.341Z,11.10
2023-05-02T12:34:49.269Z,11.50
2023-05-02T12:35:49.201Z,10.90
2023-05-02T12:36:49.184Z,11.10
2023-05-02T12:37:49.175Z,11.70
2023-05-02T12:38:49.181Z,11.10
2023-05-02T12:39:49.155Z,11.60
2023-05-02T12:40:49.138Z,11.20
2023-05-02T12:41:49.129Z,11.10
2023-05-02T12:42:49.130Z,12.60
2023-05-02T12:43:49.129Z,11.50
2023-05-02T12:44:49.095Z,11.40
2023-05-02T12:45:49.088Z,11.90
2023-05-02T12:46:49.117Z,13.30
2023-05-02T12:47:49.103Z,11.40
2023-05-02T12:48:49.108Z,11.50
2023-05-02T12:49:49.062Z,11.70
2023-05-02T12:50:49.055Z,11.30
2023-05-02T12:51:49.022Z,11.80
2023-05-02T12:52:49.091Z,12.20